createdAt,value
2022-08-23T00:02:04.100Z,6.05
2022-08-23T00:04:55.760Z,5.50
2022-08-23T00:07:29.812Z,5.43
2022-08-23T00:09:57.156Z,6.13
2022-08-23T00:12:25.818Z,6.85
2022-08-23T00:14:54.991Z,6.30
2022-08-23T00:17:25.593Z,5.53
2022-08-23T00:20:01.359Z,5.32
2022-08-23T00:22:28.484Z,5.97
2022-08-23T00:25:01.207Z,5.53
2022-08-23T00:27:28.913Z,5.70
2022-08-23T00:29:59.887Z,6.13
2022-08-23T00:32:34.411Z,5.32
2022-08-23T00:35:05.454Z,6.20
2022-08-23T00:37:33.854Z,6.05
2022-08-23T00:40:04.538Z,6.20
2022-08-23T00:43:16.062Z,6.72
2022-08-23T00:46:09.384Z,5.70
2022-08-23T00:48:40.957Z,6.30
2022-08-23T00:51:21.610Z,7.32
2022-08-23T00:53:53.695Z,6.93
2022-08-23T00:56:23.327Z,6.40
2022-08-23T00:58:50.957Z,6.60
2022-08-23T01:01:18.407Z,6.30
2022-08-23T01:03:57.078Z,6.50
2022-08-23T01:06:59.439Z,7.07
2022-08-23T01:09:28.160Z,6.93
2022-08-23T01:11:59.151Z,7.57
2022-08-23T01:14:40.504Z,7.88
2022-08-23T01:17:15.010Z,7.28
2022-08-23T01:20:07.337Z,8.05
2022-08-23T01:23:02.400Z,8.23
2022-08-23T01:25:33.062Z,7.95
2022-08-23T01:28:23.093Z,7.78
2022-08-23T01:30:50.207Z,8.07
2022-08-23T01:33:18.378Z,7.70
2022-08-23T01:35:49.647Z,7.85
2022-08-23T01:38:37.027Z,8.27
2022-08-23T01:41:04.589Z,7.75
2022-08-23T01:43:31.732Z,8.07
2022-08-23T01:45:59.169Z,7.53
2022-08-23T01:48:27.234Z,8.38
2022-08-23T01:50:54.653Z,8.18
2022-08-23T01:53:23.280Z,8.38
2022-08-23T01:55:50.473Z,8.27
2022-08-23T01:58:21.552Z,8.30
2022-08-23T02:00:48.825Z,7.75
2022-08-23T02:03:16.021Z,8.35
2022-08-23T02:05:45.762Z,8.82
2022-08-23T02:08:33.044Z,9.57
2022-08-23T02:11:14.334Z,8.52
2022-08-23T02:13:47.599Z,9.75
2022-08-23T02:16:25.104Z,11.02
2022-08-23T02:18:53.427Z,10.93
2022-08-23T02:21:21.683Z,12.88
2022-08-23T02:23:51.573Z,12.18
2022-08-23T02:26:19.486Z,11.02
2022-08-23T02:29:06.488Z,12.52
2022-08-23T02:31:34.440Z,10.90
2022-08-23T02:34:02.021Z,11.18
2022-08-23T02:36:32.067Z,12.18
2022-08-23T02:39:38.989Z,11.23
2022-08-23T02:42:08.716Z,12.23
2022-08-23T02:44:41.984Z,12.35
2022-08-23T02:47:09.345Z,14.50
2022-08-23T02:50:09.713Z,13.93
2022-08-23T02:52:37.070Z,13.80
2022-08-23T02:55:05.130Z,14.43
2022-08-23T02:57:32.122Z,15.35
2022-08-23T03:00:06.823Z,16.98
2022-08-23T03:02:50.032Z,14.98
2022-08-23T03:05:49.627Z,15.68
2022-08-23T03:08:32.980Z,15.25
2022-08-23T03:11:02.985Z,16.23
2022-08-23T03:13:43.730Z,16.30
2022-08-23T03:16:12.632Z,15.98
2022-08-23T03:18:48.341Z,17.23
2022-08-23T03:21:22.538Z,15.95
2022-08-23T03:23:52.859Z,15.68
2022-08-23T03:26:27.120Z,17.15
2022-08-23T03:29:36.626Z,17.17
2022-08-23T03:32:05.091Z,15.88
2022-08-23T03:34:36.171Z,16.13
2022-08-23T03:37:12.917Z,16.40
2022-08-23T03:39:53.495Z,14.70
2022-08-23T03:42:30.862Z,16.80
2022-08-23T03:45:14.472Z,14.77
2022-08-23T03:47:50.489Z,14.60
2022-08-23T03:50:18.631Z,15.77
2022-08-23T03:52:47.022Z,17.02
2022-08-23T03:55:17.586Z,16.25
2022-08-23T03:58:10.514Z,16.35
2022-08-23T04:00:38.235Z,14.63
2022-08-23T04:03:05.705Z,15.07
2022-08-23T04:05:42.609Z,15.15
2022-08-23T04:08:19.613Z,15.98
2022-08-23T04:10:59.193Z,16.33
2022-08-23T04:13:28.751Z,17.60
2022-08-23T04:15:57.184Z,18.58
2022-08-23T04:18:26.120Z,19.92
2022-08-23T04:20:54.700Z,20.02
2022-08-23T04:23:33.484Z,20.33
2022-08-23T04:26:09.669Z,20.38
2022-08-23T04:28:49.991Z,23.58
2022-08-23T04:31:24.164Z,23.10
2022-08-23T04:33:59.990Z,21.83
2022-08-23T04:39:03.187Z,25.50
2022-08-23T04:42:17.560Z,23.10
2022-08-23T04:45:06.981Z,25.60
2022-08-23T04:47:44.489Z,27.92
2022-08-23T04:50:19.104Z,24.80
2022-08-23T04:53:17.258Z,25.52
2022-08-23T04:55:56.218Z,27.33
2022-08-23T04:58:33.816Z,24.55
2022-08-23T05:01:08.036Z,25.00
2022-08-23T05:03:44.778Z,23.88
2022-08-23T05:06:12.810Z,24.15
2022-08-23T05:08:41.309Z,23.92
2022-08-23T05:11:16.157Z,22.25
2022-08-23T05:13:45.228Z,22.17
2022-08-23T05:16:14.298Z,22.23
2022-08-23T05:19:27.303Z,22.40
2022-08-23T05:21:57.117Z,21.30
2022-08-23T05:24:35.774Z,21.35
2022-08-23T05:27:03.078Z,22.25
2022-08-23T05:29:35.154Z,19.73
2022-08-23T05:32:03.470Z,19.92
2022-08-23T05:34:31.030Z,19.60
2022-08-23T05:36:58.828Z,16.75
2022-08-23T05:39:51.279Z,18.52
2022-08-23T05:42:18.489Z,18.50
2022-08-23T05:44:46.644Z,18.15
2022-08-23T05:47:17.520Z,17.92
2022-08-23T05:50:15.727Z,15.75
2022-08-23T05:52:44.401Z,16.13
2022-08-23T05:55:13.070Z,16.05
2022-08-23T05:57:53.963Z,16.90
2022-08-23T06:00:21.528Z,16.88
2022-08-23T06:03:02.684Z,17.55
2022-08-23T06:05:29.934Z,16.70
2022-08-23T06:08:00.668Z,17.48
2022-08-23T06:10:27.991Z,18.73
2022-08-23T06:13:03.503Z,18.67
2022-08-23T06:15:31.577Z,19.98
2022-08-23T06:18:02.278Z,17.98
2022-08-23T06:20:29.975Z,18.40
2022-08-23T06:23:07.896Z,19.70
2022-08-23T06:25:52.125Z,19.90
2022-08-23T06:28:59.127Z,19.65
2022-08-23T06:31:48.845Z,20.60
2022-08-23T06:34:23.312Z,20.15
2022-08-23T06:37:14.541Z,18.33
2022-08-23T06:40:05.153Z,19.55
2022-08-23T06:42:44.792Z,20.30
2022-08-23T06:45:14.130Z,21.08
2022-08-23T06:50:54.591Z,20.35
2022-08-23T06:53:44.973Z,22.23
2022-08-23T06:56:42.901Z,21.33
2022-08-23T06:59:17.487Z,21.17
2022-08-23T07:04:58.826Z,20.48
2022-08-23T07:08:10.862Z,20.02
2022-08-23T07:10:38.319Z,21.45
2022-08-23T07:13:05.481Z,20.05
2022-08-23T07:15:32.594Z,19.90
2022-08-23T07:18:05.719Z,17.35
2022-08-23T07:20:36.627Z,17.95
2022-08-23T07:23:03.652Z,17.90
2022-08-23T07:25:31.011Z,16.88
2022-08-23T07:28:03.040Z,16.77
2022-08-23T07:30:30.379Z,16.67
2022-08-23T07:32:57.628Z,16.40
2022-08-23T07:35:28.415Z,16.50
2022-08-23T07:37:59.220Z,16.17
2022-08-23T07:40:33.551Z,15.95
2022-08-23T07:43:04.051Z,14.73
2022-08-23T07:45:32.460Z,15.55
2022-08-23T07:48:02.830Z,14.18
2022-08-23T07:50:36.220Z,14.05
2022-08-23T07:53:04.197Z,13.98
2022-08-23T07:55:31.299Z,12.60
2022-08-23T07:58:29.130Z,13.15
2022-08-23T08:01:22.195Z,11.68
2022-08-23T08:03:54.097Z,11.60
2022-08-23T08:06:32.253Z,10.98
2022-08-23T08:09:20.279Z,11.85
2022-08-23T08:11:48.255Z,11.15
2022-08-23T08:14:19.380Z,10.82
2022-08-23T08:16:56.196Z,10.82
2022-08-23T08:19:41.347Z,10.45
2022-08-23T08:22:37.477Z,10.15
2022-08-23T08:25:07.797Z,10.68
2022-08-23T08:27:36.633Z,9.23
2022-08-23T08:30:05.463Z,10.15
2022-08-23T08:32:32.524Z,10.07
2022-08-23T08:34:59.955Z,8.95
2022-08-23T08:37:27.345Z,9.25
2022-08-23T08:40:32.801Z,9.48
2022-08-23T08:43:12.112Z,9.23
2022-08-23T08:45:59.888Z,9.38
2022-08-23T08:48:34.978Z,8.75
2022-08-23T08:51:11.777Z,10.52
2022-08-23T08:53:45.104Z,10.18
2022-08-23T08:56:33.303Z,10.40
2022-08-23T08:59:49.715Z,8.15
2022-08-23T09:02:33.057Z,9.52
2022-08-23T09:05:09.779Z,9.38
2022-08-23T09:08:01.205Z,9.65
2022-08-23T09:10:52.232Z,10.95
2022-08-23T09:13:37.957Z,8.40
2022-08-23T09:16:24.823Z,8.73
2022-08-23T09:18:54.805Z,8.50
2022-08-23T09:21:22.836Z,9.23
2022-08-23T09:24:00.172Z,8.30
2022-08-23T09:26:43.836Z,8.60
2022-08-23T09:29:33.072Z,8.30
2022-08-23T09:32:06.576Z,8.23
2022-08-23T09:34:36.320Z,10.18
2022-08-23T09:37:27.217Z,8.85
2022-08-23T09:40:20.294Z,8.77
2022-08-23T09:43:13.329Z,8.82
2022-08-23T09:45:48.383Z,7.65
2022-08-23T09:48:42.632Z,8.27
2022-08-23T09:51:25.253Z,8.15
2022-08-23T09:54:43.993Z,9.10
2022-08-23T09:57:24.715Z,7.78
2022-08-23T09:59:52.376Z,7.63
2022-08-23T10:02:30.428Z,7.30
2022-08-23T10:05:16.218Z,7.82
2022-08-23T10:07:53.470Z,7.57
2022-08-23T10:10:34.897Z,7.40
2022-08-23T10:13:05.642Z,7.25
2022-08-23T10:15:49.415Z,6.70
2022-08-23T10:18:42.306Z,6.20
2022-08-23T10:21:25.262Z,7.47
2022-08-23T10:24:28.307Z,8.07
2022-08-23T10:27:45.496Z,7.80
2022-08-23T10:30:16.384Z,8.38
2022-08-23T10:33:02.553Z,7.40
2022-08-23T10:35:43.279Z,7.20
2022-08-23T10:38:36.035Z,7.25
2022-08-23T10:41:27.062Z,7.07
2022-08-23T10:44:00.819Z,7.78
2022-08-23T10:46:31.274Z,7.70
2022-08-23T10:49:01.377Z,6.88
2022-08-23T10:51:47.007Z,7.05
2022-08-23T10:54:23.915Z,7.15
2022-08-23T10:56:54.419Z,7.05
2022-08-23T10:59:25.320Z,6.70
2022-08-23T11:02:35.638Z,6.78
2022-08-23T11:05:27.074Z,6.75
2022-08-23T11:08:12.767Z,6.55
2022-08-23T11:10:56.191Z,6.00
2022-08-23T11:13:29.627Z,7.20
2022-08-23T11:16:09.514Z,7.07
2022-08-23T11:18:41.395Z,7.38
2022-08-23T11:21:18.086Z,7.20
2022-08-23T11:24:16.391Z,6.18
2022-08-23T11:26:44.785Z,14.93
2022-08-23T11:29:21.361Z,8.10
2022-08-23T11:32:22.326Z,7.95
2022-08-23T11:35:00.834Z,6.40
2022-08-23T11:37:47.634Z,5.85
2022-08-23T11:40:18.415Z,5.82
2022-08-23T11:42:53.186Z,7.03
2022-08-23T11:45:35.788Z,5.97
2022-08-23T11:48:36.478Z,6.18
2022-08-23T11:51:37.731Z,6.47
2022-08-23T11:54:31.943Z,6.95
2022-08-23T11:57:11.936Z,6.00
2022-08-23T12:00:19.179Z,5.82
2022-08-23T12:03:04.294Z,6.93
2022-08-23T12:05:34.235Z,6.07
2022-08-23T12:08:03.520Z,6.22
2022-08-23T12:10:42.865Z,5.70
2022-08-23T12:13:21.993Z,6.55
2022-08-23T12:16:26.356Z,6.20
2022-08-23T12:19:01.447Z,5.50
2022-08-23T12:21:45.570Z,5.63
2022-08-23T12:24:35.757Z,6.95
2022-08-23T12:27:08.568Z,6.03
2022-08-23T12:30:02.776Z,6.22
2022-08-23T12:32:58.837Z,5.85
2022-08-23T12:35:44.598Z,6.38
2022-08-23T12:38:38.416Z,5.95
2022-08-23T12:41:28.593Z,6.65
2022-08-23T12:44:04.258Z,6.45
2022-08-23T12:46:49.156Z,5.63
2022-08-23T12:50:05.938Z,5.43
2022-08-23T12:52:43.023Z,6.18
2022-08-23T12:55:19.036Z,6.60
2022-08-23T12:57:55.129Z,5.32
2022-08-23T13:00:43.308Z,5.45
2022-08-23T13:03:18.516Z,6.07
2022-08-23T13:05:55.308Z,6.10
2022-08-23T13:08:34.434Z,5.30
2022-08-23T13:11:07.446Z,5.97
2022-08-23T13:13:38.530Z,5.20
2022-08-23T13:16:36.373Z,4.78
2022-08-23T13:19:25.293Z,4.65
2022-08-23T13:22:22.206Z,4.53
2022-08-23T13:25:28.242Z,4.72
2022-08-23T13:27:58.867Z,4.88
2022-08-23T13:30:29.704Z,4.32
2022-08-23T13:33:17.586Z,5.30
2022-08-23T13:35:47.421Z,5.13
2022-08-23T13:38:40.576Z,5.07
2022-08-23T13:41:10.605Z,5.22
2022-08-23T13:43:48.969Z,5.15
2022-08-23T13:46:28.867Z,5.25
2022-08-23T13:49:03.071Z,5.57
2022-08-23T13:51:43.483Z,5.38
2022-08-23T13:54:15.538Z,5.75
2022-08-23T13:57:04.669Z,6.43
2022-08-23T13:59:40.559Z,5.45
2022-08-23T14:02:16.358Z,6.80
2022-08-23T14:04:44.140Z,5.32
2022-08-23T14:07:12.600Z,5.90
2022-08-23T14:09:39.951Z,5.75
2022-08-23T14:12:12.755Z,4.88
2022-08-23T14:14:41.224Z,5.97
2022-08-23T14:17:12.858Z,5.35
2022-08-23T14:22:29.144Z,6.35
2022-08-23T14:24:59.265Z,6.05
2022-08-23T14:27:26.581Z,5.47
2022-08-23T14:29:54.363Z,5.20
2022-08-23T14:32:21.872Z,6.40
2022-08-23T14:34:54.675Z,5.60
2022-08-23T14:38:02.837Z,6.47
2022-08-23T14:40:09.829Z,5.72
2022-08-23T14:42:47.917Z,6.10
2022-08-23T14:45:17.107Z,6.55
2022-08-23T14:47:44.532Z,5.75
2022-08-23T14:50:14.138Z,5.60
2022-08-23T14:52:45.905Z,7.10
2022-08-23T14:55:15.005Z,6.93
2022-08-23T14:57:43.106Z,6.43
2022-08-23T15:00:15.482Z,6.72
2022-08-23T15:02:52.361Z,6.32
2022-08-23T15:05:26.336Z,6.25
2022-08-23T15:07:54.914Z,6.68
2022-08-23T15:13:25.861Z,6.30
2022-08-23T15:16:08.220Z,5.47
2022-08-23T15:18:45.853Z,6.03
2022-08-23T15:21:14.952Z,5.55
2022-08-23T15:23:44.888Z,6.30
2022-08-23T15:28:59.243Z,5.82
2022-08-23T15:33:53.848Z,5.18
2022-08-23T15:36:25.863Z,6.28
2022-08-23T15:38:53.990Z,6.28
2022-08-23T15:41:21.356Z,6.65
2022-08-23T15:43:48.361Z,7.85
2022-08-23T15:46:21.721Z,6.22
2022-08-23T15:49:04.916Z,6.60
2022-08-23T15:51:33.315Z,7.43
2022-08-23T15:54:00.502Z,6.63
2022-08-23T15:56:36.594Z,6.07
2022-08-23T15:59:05.258Z,6.63
2022-08-23T16:01:33.925Z,6.35
2022-08-23T16:04:02.361Z,6.88
2022-08-23T16:06:36.548Z,7.38
2022-08-23T16:09:07.070Z,6.10
2022-08-23T16:11:34.326Z,6.50
2022-08-23T16:14:01.406Z,6.18
2022-08-23T16:21:53.796Z,6.72
2022-08-23T16:24:24.501Z,7.15
2022-08-23T16:26:52.259Z,6.68
2022-08-23T16:29:39.153Z,6.43
2022-08-23T16:32:07.672Z,6.88
2022-08-23T16:34:35.041Z,6.40
2022-08-23T16:37:06.199Z,6.40
2022-08-23T16:39:52.238Z,7.10
2022-08-23T16:42:19.841Z,7.35
2022-08-23T16:44:47.004Z,7.10
2022-08-23T16:47:15.492Z,7.13
2022-08-23T16:49:44.491Z,6.20
2022-08-23T16:52:11.782Z,6.43
2022-08-23T16:54:39.081Z,6.20
2022-08-23T16:57:06.932Z,6.65
2022-08-23T16:59:40.305Z,6.30
2022-08-23T17:02:18.072Z,6.03
2022-08-23T17:04:46.313Z,6.50
2022-08-23T17:07:14.798Z,6.80
2022-08-23T17:09:42.152Z,6.68
2022-08-23T17:12:09.207Z,6.28
2022-08-23T17:14:36.154Z,6.88
2022-08-23T17:17:03.228Z,6.10
2022-08-23T17:19:30.238Z,7.20
2022-08-23T17:21:57.141Z,6.60
2022-08-23T17:24:24.505Z,6.32
2022-08-23T17:26:51.455Z,6.55
2022-08-23T17:29:20.297Z,6.05
2022-08-23T17:31:47.386Z,6.22
2022-08-23T17:34:14.471Z,6.97
2022-08-23T17:36:47.691Z,7.15
2022-08-23T17:39:17.689Z,6.03
2022-08-23T17:41:45.505Z,6.85
2022-08-23T17:44:13.398Z,6.53
2022-08-23T17:46:43.051Z,7.00
2022-08-23T17:49:12.721Z,6.75
2022-08-23T17:51:43.405Z,6.15
2022-08-23T17:54:12.942Z,6.20
2022-08-23T17:59:19.605Z,6.70
2022-08-23T18:01:46.866Z,7.32
2022-08-23T18:04:13.990Z,6.82
2022-08-23T18:06:41.201Z,7.05
2022-08-23T18:09:10.823Z,6.50
2022-08-23T18:11:38.066Z,7.72
2022-08-23T18:14:05.832Z,7.30
2022-08-23T18:16:35.542Z,6.57
2022-08-23T18:19:11.193Z,7.63
2022-08-23T18:21:41.441Z,7.13
2022-08-23T18:24:09.438Z,8.45
2022-08-23T18:26:55.961Z,7.63
2022-08-23T18:29:28.876Z,7.55
2022-08-23T18:31:55.889Z,7.43
2022-08-23T18:34:23.043Z,7.53
2022-08-23T18:36:50.623Z,7.20
2022-08-23T18:39:27.677Z,7.18
2022-08-23T18:42:04.926Z,7.45
2022-08-23T18:46:59.856Z,7.38
2022-08-23T18:49:46.962Z,7.82
2022-08-23T18:52:13.995Z,8.98
2022-08-23T18:54:41.079Z,8.65
2022-08-23T18:57:08.149Z,8.40
2022-08-23T18:59:43.248Z,8.30
2022-08-23T19:02:10.688Z,7.47
2022-08-23T19:04:37.796Z,8.30
2022-08-23T19:07:05.209Z,7.53
2022-08-23T19:09:32.348Z,8.30
2022-08-23T19:12:00.990Z,7.35
2022-08-23T19:14:29.569Z,8.80
2022-08-23T19:16:56.538Z,7.95
2022-08-23T19:19:25.679Z,8.38
2022-08-23T19:21:52.586Z,7.40
2022-08-23T19:24:19.688Z,8.02
2022-08-23T19:26:49.435Z,8.88
2022-08-23T19:29:21.284Z,8.65
2022-08-23T19:31:50.312Z,8.50
2022-08-23T19:34:19.435Z,7.85
2022-08-23T19:37:00.366Z,7.70
2022-08-23T19:39:29.947Z,7.82
2022-08-23T19:41:57.466Z,7.40
2022-08-23T19:44:24.518Z,8.05
2022-08-23T19:46:51.963Z,7.70
2022-08-23T19:49:57.629Z,8.20
2022-08-23T19:52:24.568Z,8.05
2022-08-23T19:54:51.616Z,7.90
2022-08-23T19:57:18.632Z,7.97
2022-08-23T19:59:46.140Z,7.53
2022-08-23T20:02:17.471Z,7.50
2022-08-23T20:04:44.733Z,7.75
2022-08-23T20:07:28.581Z,7.88
2022-08-23T20:09:59.930Z,7.15
2022-08-23T20:12:29.006Z,7.85
2022-08-23T20:14:56.209Z,7.03
2022-08-23T20:17:23.258Z,7.05
2022-08-23T20:19:52.468Z,6.85
2022-08-23T20:22:38.330Z,7.43
2022-08-23T20:25:07.843Z,7.30
2022-08-23T20:27:37.217Z,6.80
2022-08-23T20:30:06.847Z,7.13
2022-08-23T20:32:34.439Z,7.68
2022-08-23T20:35:02.323Z,8.20
2022-08-23T20:37:30.107Z,8.05
2022-08-23T20:39:57.125Z,7.70
2022-08-23T20:42:25.157Z,8.05
2022-08-23T20:44:52.150Z,7.88
2022-08-23T20:47:19.456Z,8.45
2022-08-23T20:49:48.617Z,8.50
2022-08-23T20:52:17.902Z,7.80
2022-08-23T20:54:46.095Z,8.48
2022-08-23T20:57:13.177Z,8.02
2022-08-23T20:59:59.206Z,7.25
2022-08-23T21:02:27.130Z,7.47
2022-08-23T21:04:54.206Z,8.13
2022-08-23T21:07:21.360Z,8.77
2022-08-23T21:10:08.052Z,7.93
2022-08-23T21:12:35.140Z,9.35
2022-08-23T21:15:02.301Z,7.03
2022-08-23T21:17:29.847Z,8.15
2022-08-23T21:19:57.035Z,7.95
2022-08-23T21:22:23.987Z,7.78
2022-08-23T21:24:59.333Z,7.70
2022-08-23T21:27:27.517Z,8.18
2022-08-23T21:29:54.597Z,8.13
2022-08-23T21:32:21.547Z,8.27
2022-08-23T21:34:48.428Z,7.95
2022-08-23T21:37:15.405Z,7.82
2022-08-23T21:40:20.146Z,7.70
2022-08-23T21:42:47.801Z,8.02
2022-08-23T21:45:14.696Z,8.40
2022-08-23T21:47:42.761Z,8.68
2022-08-23T21:50:10.274Z,8.23
2022-08-23T21:52:37.285Z,8.48
2022-08-23T21:55:05.196Z,7.70
2022-08-23T21:57:33.724Z,8.27
2022-08-23T22:00:08.699Z,7.22
2022-08-23T22:02:40.446Z,7.70
2022-08-23T22:05:07.783Z,9.15
2022-08-23T22:07:35.111Z,8.82
2022-08-23T22:10:05.775Z,9.13
2022-08-23T22:12:33.596Z,9.73
2022-08-23T22:15:00.885Z,8.05
2022-08-23T22:17:28.074Z,8.70
2022-08-23T22:19:56.643Z,9.98
2022-08-23T22:22:24.941Z,8.95
2022-08-23T22:24:54.029Z,10.25
2022-08-23T22:27:21.324Z,9.02
2022-08-23T22:29:48.651Z,8.63
2022-08-23T22:32:15.825Z,9.55
2022-08-23T22:34:42.833Z,10.05
2022-08-23T22:37:09.760Z,9.38
2022-08-23T22:39:39.115Z,9.18
2022-08-23T22:42:06.076Z,9.63
2022-08-23T22:44:40.215Z,9.50
2022-08-23T22:47:07.565Z,9.23
2022-08-23T22:50:15.247Z,9.20
2022-08-23T22:52:42.613Z,8.18
2022-08-23T22:55:09.893Z,9.30
2022-08-23T22:57:37.975Z,9.32
2022-08-23T23:00:09.684Z,9.30
2022-08-23T23:05:08.080Z,8.88
2022-08-23T23:07:53.424Z,8.35
2022-08-23T23:10:20.432Z,7.40
2022-08-23T23:12:47.449Z,8.52
2022-08-23T23:15:14.651Z,8.52
2022-08-23T23:17:42.742Z,8.50
2022-08-23T23:20:42.791Z,8.13
2022-08-23T23:23:14.726Z,8.63
2022-08-23T23:25:43.170Z,6.82
2022-08-23T23:28:10.500Z,9.05
2022-08-23T23:30:37.562Z,8.43
2022-08-23T23:33:04.916Z,9.15
2022-08-23T23:35:32.676Z,8.30
2022-08-23T23:38:02.141Z,8.20
2022-08-23T23:40:29.449Z,9.23
2022-08-23T23:42:56.596Z,9.82
2022-08-23T23:45:23.817Z,8.05
2022-08-23T23:47:52.268Z,9.32
2022-08-23T23:50:19.697Z,10.05
2022-08-23T23:52:46.789Z,8.73
2022-08-23T23:55:16.918Z,7.78
2022-08-23T23:57:44.216Z,8.05
